sensor_id;sensor_type;location;lat;lon;timestamp;temperature;humidity
15241;DHT22;7723;52.170;9.978;2023-02-15T00:01:09;3.10;99.90
15241;DHT22;7723;52.170;9.978;2023-02-15T00:03:38;3.70;99.90
15241;DHT22;7723;52.170;9.978;2023-02-15T00:06:06;4.00;99.90
15241;DHT22;7723;52.170;9.978;2023-02-15T00:08:33;3.70;99.90
15241;DHT22;7723;52.170;9.978;2023-02-15T00:11:05;3.60;99.90
15241;DHT22;7723;52.170;9.978;2023-02-15T00:13:32;3.60;99.90
15241;DHT22;7723;52.170;9.978;2023-02-15T00:16:01;3.60;99.90
15241;DHT22;7723;52.170;9.978;2023-02-15T00:18:29;3.40;99.90
15241;DHT22;7723;52.170;9.978;2023-02-15T00:20:58;3.20;99.90
15241;DHT22;7723;52.170;9.978;2023-02-15T00:23:26;3.10;99.90
15241;DHT22;7723;52.170;9.978;2023-02-15T00:26:03;2.90;99.90
15241;DHT22;7723;52.170;9.978;2023-02-15T00:28:31;2.80;99.90
15241;DHT22;7723;52.170;9.978;2023-02-15T00:31:03;2.60;99.90
15241;DHT22;7723;52.170;9.978;2023-02-15T00:33:30;2.50;99.90
15241;DHT22;7723;52.170;9.978;2023-02-15T00:35:59;2.50;99.90
15241;DHT22;7723;52.170;9.978;2023-02-15T00:38:28;2.80;99.90
15241;DHT22;7723;52.170;9.978;2023-02-15T00:40:56;2.70;99.90
15241;DHT22;7723;52.170;9.978;2023-02-15T00:43:25;2.60;99.90
15241;DHT22;7723;52.170;9.978;2023-02-15T00:45:52;2.50;99.90
15241;DHT22;7723;52.170;9.978;2023-02-15T00:48:20;2.60;99.90
15241;DHT22;7723;52.170;9.978;2023-02-15T00:50:49;2.60;99.90
15241;DHT22;7723;52.170;9.978;2023-02-15T00:53:18;2.50;99.90
15241;DHT22;7723;52.170;9.978;2023-02-15T00:55:45;2.30;99.90
15241;DHT22;7723;52.170;9.978;2023-02-15T00:58:13;2.20;99.90
15241;DHT22;7723;52.170;9.978;2023-02-15T01:00:42;2.10;99.90
15241;DHT22;7723;52.170;9.978;2023-02-15T01:03:10;2.00;99.90
15241;DHT22;7723;52.170;9.978;2023-02-15T01:05:38;1.90;99.90
15241;DHT22;7723;52.170;9.978;2023-02-15T01:08:05;1.90;99.90
15241;DHT22;7723;52.170;9.978;2023-02-15T01:10:35;2.30;99.90
15241;DHT22;7723;52.170;9.978;2023-02-15T01:13:02;2.10;99.90
15241;DHT22;7723;52.170;9.978;2023-02-15T01:15:29;2.10;99.90
15241;DHT22;7723;52.170;9.978;2023-02-15T01:17:56;2.10;99.90
15241;DHT22;7723;52.170;9.978;2023-02-15T01:20:26;2.10;99.90
15241;DHT22;7723;52.170;9.978;2023-02-15T01:22:54;2.10;99.90
15241;DHT22;7723;52.170;9.978;2023-02-15T01:25:22;2.30;99.90
15241;DHT22;7723;52.170;9.978;2023-02-15T01:27:51;2.30;99.90
15241;DHT22;7723;52.170;9.978;2023-02-15T01:30:19;2.70;99.90
15241;DHT22;7723;52.170;9.978;2023-02-15T01:32:46;2.80;99.90
15241;DHT22;7723;52.170;9.978;2023-02-15T01:35:13;2.70;99.90
15241;DHT22;7723;52.170;9.978;2023-02-15T01:37:40;2.50;99.90
15241;DHT22;7723;52.170;9.978;2023-02-15T01:40:11;2.50;99.90
15241;DHT22;7723;52.170;9.978;2023-02-15T01:42:39;2.50;99.90
15241;DHT22;7723;52.170;9.978;2023-02-15T01:45:21;2.40;99.90
15241;DHT22;7723;52.170;9.978;2023-02-15T01:47:52;2.30;99.90
15241;DHT22;7723;52.170;9.978;2023-02-15T01:50:24;2.20;99.90
15241;DHT22;7723;52.170;9.978;2023-02-15T01:52:55;2.20;99.90
15241;DHT22;7723;52.170;9.978;2023-02-15T01:55:25;2.20;99.90
15241;DHT22;7723;52.170;9.978;2023-02-15T01:57:53;2.20;99.90
15241;DHT22;7723;52.170;9.978;2023-02-15T02:00:23;2.30;99.90
15241;DHT22;7723;52.170;9.978;2023-02-15T02:02:54;2.50;99.90
15241;DHT22;7723;52.170;9.978;2023-02-15T02:05:22;2.40;99.90
15241;DHT22;7723;52.170;9.978;2023-02-15T02:07:51;2.30;99.90
15241;DHT22;7723;52.170;9.978;2023-02-15T02:10:23;2.20;99.90
15241;DHT22;7723;52.170;9.978;2023-02-15T02:12:53;2.30;99.90
15241;DHT22;7723;52.170;9.978;2023-02-15T02:15:28;2.30;99.90
15241;DHT22;7723;52.170;9.978;2023-02-15T02:18:18;2.40;99.90
15241;DHT22;7723;52.170;9.978;2023-02-15T02:21:20;2.30;99.90
15241;DHT22;7723;52.170;9.978;2023-02-15T02:24:01;2.40;99.90
15241;DHT22;7723;52.170;9.978;2023-02-15T02:27:04;2.40;99.90
15241;DHT22;7723;52.170;9.978;2023-02-15T02:30:19;2.30;99.90
15241;DHT22;7723;52.170;9.978;2023-02-15T02:33:08;2.20;99.90
15241;DHT22;7723;52.170;9.978;2023-02-15T02:35:44;2.10;99.90
15241;DHT22;7723;52.170;9.978;2023-02-15T02:38:20;2.00;99.90
15241;DHT22;7723;52.170;9.978;2023-02-15T02:40:55;2.10;99.90
15241;DHT22;7723;52.170;9.978;2023-02-15T02:43:29;2.00;99.90
15241;DHT22;7723;52.170;9.978;2023-02-15T02:46:02;1.90;99.90
15241;DHT22;7723;52.170;9.978;2023-02-15T02:48:34;1.90;99.90
15241;DHT22;7723;52.170;9.978;2023-02-15T02:51:01;1.80;99.90
15241;DHT22;7723;52.170;9.978;2023-02-15T02:53:30;1.80;99.90
15241;DHT22;7723;52.170;9.978;2023-02-15T02:56:01;1.90;99.90
15241;DHT22;7723;52.170;9.978;2023-02-15T02:58:35;1.90;99.90
15241;DHT22;7723;52.170;9.978;2023-02-15T03:01:08;1.90;99.90
15241;DHT22;7723;52.170;9.978;2023-02-15T03:03:39;1.90;99.90
15241;DHT22;7723;52.170;9.978;2023-02-15T03:06:11;1.90;99.90
15241;DHT22;7723;52.170;9.978;2023-02-15T03:08:47;1.90;99.90
15241;DHT22;7723;52.170;9.978;2023-02-15T03:11:15;1.80;99.90
15241;DHT22;7723;52.170;9.978;2023-02-15T03:13:44;1.80;99.90
15241;DHT22;7723;52.170;9.978;2023-02-15T03:16:13;1.80;99.90
15241;DHT22;7723;52.170;9.978;2023-02-15T03:18:58;1.80;99.90
15241;DHT22;7723;52.170;9.978;2023-02-15T03:21:41;1.80;99.90
15241;DHT22;7723;52.170;9.978;2023-02-15T03:24:26;1.70;99.90
15241;DHT22;7723;52.170;9.978;2023-02-15T03:26:56;1.70;99.90
15241;DHT22;7723;52.170;9.978;2023-02-15T03:29:27;1.80;99.90
15241;DHT22;7723;52.170;9.978;2023-02-15T03:31:57;1.80;99.90
15241;DHT22;7723;52.170;9.978;2023-02-15T03:34:28;1.60;99.90
15241;DHT22;7723;52.170;9.978;2023-02-15T03:36:59;1.50;99.90
15241;DHT22;7723;52.170;9.978;2023-02-15T03:39:32;1.40;99.90
15241;DHT22;7723;52.170;9.978;2023-02-15T03:42:07;1.30;99.90
15241;DHT22;7723;52.170;9.978;2023-02-15T03:44:42;1.20;99.90
15241;DHT22;7723;52.170;9.978;2023-02-15T03:47:15;1.20;99.90
15241;DHT22;7723;52.170;9.978;2023-02-15T03:49:47;1.10;99.90
15241;DHT22;7723;52.170;9.978;2023-02-15T03:52:16;1.00;99.90
15241;DHT22;7723;52.170;9.978;2023-02-15T03:54:44;1.00;99.90
15241;DHT22;7723;52.170;9.978;2023-02-15T03:57:16;1.00;99.90
15241;DHT22;7723;52.170;9.978;2023-02-15T04:00:03;0.90;99.90
15241;DHT22;7723;52.170;9.978;2023-02-15T04:03:00;0.90;99.90
15241;DHT22;7723;52.170;9.978;2023-02-15T04:05:33;0.90;99.90
15241;DHT22;7723;52.170;9.978;2023-02-15T04:08:00;0.80;99.90
15241;DHT22;7723;52.170;9.978;2023-02-15T04:10:27;0.80;99.90
15241;DHT22;7723;52.170;9.978;2023-02-15T04:13:11;0.70;99.90
15241;DHT22;7723;52.170;9.978;2023-02-15T04:15:39;0.70;99.90
15241;DHT22;7723;52.170;9.978;2023-02-15T04:18:23;0.60;99.90
15241;DHT22;7723;52.170;9.978;2023-02-15T04:21:09;0.60;99.90
15241;DHT22;7723;52.170;9.978;2023-02-15T04:23:54;0.60;99.90
15241;DHT22;7723;52.170;9.978;2023-02-15T04:26:38;0.50;99.90
15241;DHT22;7723;52.170;9.978;2023-02-15T04:29:05;0.50;99.90
15241;DHT22;7723;52.170;9.978;2023-02-15T04:31:32;0.50;99.90
15241;DHT22;7723;52.170;9.978;2023-02-15T04:34:00;0.60;99.90
15241;DHT22;7723;52.170;9.978;2023-02-15T04:36:28;0.60;99.90
15241;DHT22;7723;52.170;9.978;2023-02-15T04:38:55;0.80;99.90
15241;DHT22;7723;52.170;9.978;2023-02-15T04:41:22;1.00;99.90
15241;DHT22;7723;52.170;9.978;2023-02-15T04:43:50;1.00;99.90
15241;DHT22;7723;52.170;9.978;2023-02-15T04:46:17;0.90;99.90
15241;DHT22;7723;52.170;9.978;2023-02-15T04:48:44;0.90;99.90
15241;DHT22;7723;52.170;9.978;2023-02-15T04:51:11;0.90;99.90
15241;DHT22;7723;52.170;9.978;2023-02-15T04:53:39;0.80;99.90
15241;DHT22;7723;52.170;9.978;2023-02-15T04:56:07;0.80;99.90
15241;DHT22;7723;52.170;9.978;2023-02-15T04:58:34;0.80;99.90
15241;DHT22;7723;52.170;9.978;2023-02-15T05:01:02;0.80;99.90
15241;DHT22;7723;52.170;9.978;2023-02-15T05:03:29;0.80;99.90
15241;DHT22;7723;52.170;9.978;2023-02-15T05:05:56;0.70;99.90
15241;DHT22;7723;52.170;9.978;2023-02-15T05:08:23;0.70;99.90
15241;DHT22;7723;52.170;9.978;2023-02-15T05:10:52;0.70;99.90
15241;DHT22;7723;52.170;9.978;2023-02-15T05:13:19;0.60;99.90
15241;DHT22;7723;52.170;9.978;2023-02-15T05:15:47;0.50;99.90
15241;DHT22;7723;52.170;9.978;2023-02-15T05:18:15;0.50;99.90
15241;DHT22;7723;52.170;9.978;2023-02-15T05:20:43;0.60;99.90
15241;DHT22;7723;52.170;9.978;2023-02-15T05:23:10;0.60;99.90
15241;DHT22;7723;52.170;9.978;2023-02-15T05:25:38;0.60;99.90
15241;DHT22;7723;52.170;9.978;2023-02-15T05:28:26;0.50;99.90
15241;DHT22;7723;52.170;9.978;2023-02-15T05:31:02;0.40;99.90
15241;DHT22;7723;52.170;9.978;2023-02-15T05:33:29;0.40;99.90
15241;DHT22;7723;52.170;9.978;2023-02-15T05:35:57;0.60;99.90
15241;DHT22;7723;52.170;9.978;2023-02-15T05:38:24;0.80;99.90
15241;DHT22;7723;52.170;9.978;2023-02-15T05:40:51;0.90;99.90
15241;DHT22;7723;52.170;9.978;2023-02-15T05:43:18;0.70;99.90
15241;DHT22;7723;52.170;9.978;2023-02-15T05:45:48;0.60;99.90
15241;DHT22;7723;52.170;9.978;2023-02-15T05:48:15;0.50;99.90
15241;DHT22;7723;52.170;9.978;2023-02-15T05:50:42;0.40;99.90
15241;DHT22;7723;52.170;9.978;2023-02-15T05:53:10;0.40;99.90
15241;DHT22;7723;52.170;9.978;2023-02-15T05:55:37;0.30;99.90
15241;DHT22;7723;52.170;9.978;2023-02-15T05:58:05;0.30;99.90
15241;DHT22;7723;52.170;9.978;2023-02-15T06:00:33;0.30;99.90
15241;DHT22;7723;52.170;9.978;2023-02-15T06:03:01;0.20;99.90
15241;DHT22;7723;52.170;9.978;2023-02-15T06:05:28;0.20;99.90
15241;DHT22;7723;52.170;9.978;2023-02-15T06:07:56;0.30;99.90
15241;DHT22;7723;52.170;9.978;2023-02-15T06:10:23;0.30;99.90
15241;DHT22;7723;52.170;9.978;2023-02-15T06:12:51;0.40;99.90
15241;DHT22;7723;52.170;9.978;2023-02-15T06:15:18;0.40;99.90
15241;DHT22;7723;52.170;9.978;2023-02-15T06:17:45;0.50;99.90
15241;DHT22;7723;52.170;9.978;2023-02-15T06:20:14;0.50;99.90
15241;DHT22;7723;52.170;9.978;2023-02-15T06:22:41;0.50;99.90
15241;DHT22;7723;52.170;9.978;2023-02-15T06:25:08;0.40;99.90
15241;DHT22;7723;52.170;9.978;2023-02-15T06:27:37;0.40;99.90
15241;DHT22;7723;52.170;9.978;2023-02-15T06:30:05;0.30;99.90
15241;DHT22;7723;52.170;9.978;2023-02-15T06:32:33;0.30;99.90
15241;DHT22;7723;52.170;9.978;2023-02-15T06:35:00;0.40;99.90
15241;DHT22;7723;52.170;9.978;2023-02-15T06:37:29;0.30;99.90
15241;DHT22;7723;52.170;9.978;2023-02-15T06:39:56;0.30;99.90
15241;DHT22;7723;52.170;9.978;2023-02-15T06:42:24;0.40;99.90
15241;DHT22;7723;52.170;9.978;2023-02-15T06:44:51;0.40;99.90
15241;DHT22;7723;52.170;9.978;2023-02-15T06:47:18;0.50;99.90
15241;DHT22;7723;52.170;9.978;2023-02-15T06:49:46;0.40;99.90
15241;DHT22;7723;52.170;9.978;2023-02-15T06:52:13;0.40;99.90
15241;DHT22;7723;52.170;9.978;2023-02-15T06:54:41;0.30;99.90
15241;DHT22;7723;52.170;9.978;2023-02-15T06:57:08;0.20;99.90
15241;DHT22;7723;52.170;9.978;2023-02-15T06:59:36;0.30;99.90
15241;DHT22;7723;52.170;9.978;2023-02-15T07:02:03;0.30;99.90
15241;DHT22;7723;52.170;9.978;2023-02-15T07:04:30;0.20;99.90
15241;DHT22;7723;52.170;9.978;2023-02-15T07:06:57;0.20;99.90
15241;DHT22;7723;52.170;9.978;2023-02-15T07:09:24;0.30;99.90
15241;DHT22;7723;52.170;9.978;2023-02-15T07:11:53;0.30;99.90
15241;DHT22;7723;52.170;9.978;2023-02-15T07:14:49;0.40;99.90
15241;DHT22;7723;52.170;9.978;2023-02-15T07:17:16;0.40;99.90
15241;DHT22;7723;52.170;9.978;2023-02-15T07:19:44;0.50;99.90
15241;DHT22;7723;52.170;9.978;2023-02-15T07:22:11;0.60;99.90
15241;DHT22;7723;52.170;9.978;2023-02-15T07:24:38;0.90;99.90
15241;DHT22;7723;52.170;9.978;2023-02-15T07:27:08;1.20;99.90
15241;DHT22;7723;52.170;9.978;2023-02-15T07:29:35;1.60;99.90
15241;DHT22;7723;52.170;9.978;2023-02-15T07:32:02;1.60;99.90
15241;DHT22;7723;52.170;9.978;2023-02-15T07:34:29;2.00;99.90
15241;DHT22;7723;52.170;9.978;2023-02-15T07:36:56;2.60;99.90
15241;DHT22;7723;52.170;9.978;2023-02-15T07:39:23;2.80;99.90
15241;DHT22;7723;52.170;9.978;2023-02-15T07:41:50;3.30;99.90
15241;DHT22;7723;52.170;9.978;2023-02-15T07:44:19;3.90;99.90
15241;DHT22;7723;52.170;9.978;2023-02-15T07:46:46;4.20;99.90
15241;DHT22;7723;52.170;9.978;2023-02-15T07:49:13;4.70;99.90
15241;DHT22;7723;52.170;9.978;2023-02-15T07:51:41;5.20;99.90
15241;DHT22;7723;52.170;9.978;2023-02-15T07:54:08;5.40;99.90
15241;DHT22;7723;52.170;9.978;2023-02-15T07:56:35;5.70;99.90
15241;DHT22;7723;52.170;9.978;2023-02-15T07:59:02;6.10;99.90
15241;DHT22;7723;52.170;9.978;2023-02-15T08:01:34;5.90;99.90
15241;DHT22;7723;52.170;9.978;2023-02-15T08:04:02;6.40;99.90
15241;DHT22;7723;52.170;9.978;2023-02-15T08:06:31;6.80;99.90
15241;DHT22;7723;52.170;9.978;2023-02-15T08:08:59;6.90;99.90
15241;DHT22;7723;52.170;9.978;2023-02-15T08:11:29;7.20;99.90
15241;DHT22;7723;52.170;9.978;2023-02-15T08:14:01;7.70;99.90
15241;DHT22;7723;52.170;9.978;2023-02-15T08:16:33;8.20;99.90
15241;DHT22;7723;52.170;9.978;2023-02-15T08:19:03;8.50;99.90
15241;DHT22;7723;52.170;9.978;2023-02-15T08:21:31;8.40;99.90
15241;DHT22;7723;52.170;9.978;2023-02-15T08:23:59;8.40;99.90
15241;DHT22;7723;52.170;9.978;2023-02-15T08:26:27;8.60;99.90
15241;DHT22;7723;52.170;9.978;2023-02-15T08:28:55;8.60;99.90
15241;DHT22;7723;52.170;9.978;2023-02-15T08:31:22;8.80;99.90
15241;DHT22;7723;52.170;9.978;2023-02-15T08:33:52;8.90;99.90
15241;DHT22;7723;52.170;9.978;2023-02-15T08:36:21;9.10;99.90
15241;DHT22;7723;52.170;9.978;2023-02-15T08:38:49;8.80;99.90
15241;DHT22;7723;52.170;9.978;2023-02-15T08:41:17;8.40;99.90
15241;DHT22;7723;52.170;9.978;2023-02-15T08:43:47;8.10;99.90
15241;DHT22;7723;52.170;9.978;2023-02-15T08:46:15;8.80;99.90
15241;DHT22;7723;52.170;9.978;2023-02-15T08:48:43;9.00;99.90
15241;DHT22;7723;52.170;9.978;2023-02-15T08:51:13;9.10;99.90
15241;DHT22;7723;52.170;9.978;2023-02-15T08:53:42;8.90;99.90
15241;DHT22;7723;52.170;9.978;2023-02-15T08:56:11;8.80;99.90
15241;DHT22;7723;52.170;9.978;2023-02-15T08:58:38;9.00;99.90
15241;DHT22;7723;52.170;9.978;2023-02-15T09:01:10;9.00;99.90
15241;DHT22;7723;52.170;9.978;2023-02-15T09:03:37;9.10;99.90
15241;DHT22;7723;52.170;9.978;2023-02-15T09:06:05;9.20;99.90
15241;DHT22;7723;52.170;9.978;2023-02-15T09:08:34;9.20;99.90
15241;DHT22;7723;52.170;9.978;2023-02-15T09:11:06;8.90;99.90
15241;DHT22;7723;52.170;9.978;2023-02-15T09:13:33;8.70;99.90
15241;DHT22;7723;52.170;9.978;2023-02-15T09:16:01;8.70;99.90
15241;DHT22;7723;52.170;9.978;2023-02-15T09:18:30;9.00;99.90
15241;DHT22;7723;52.170;9.978;2023-02-15T09:21:04;9.30;99.90
15241;DHT22;7723;52.170;9.978;2023-02-15T09:23:33;9.10;99.90
15241;DHT22;7723;52.170;9.978;2023-02-15T09:26:05;9.50;99.90
15241;DHT22;7723;52.170;9.978;2023-02-15T09:28:33;9.50;99.90
15241;DHT22;7723;52.170;9.978;2023-02-15T09:31:10;9.40;99.90
15241;DHT22;7723;52.170;9.978;2023-02-15T09:33:38;9.60;99.90
15241;DHT22;7723;52.170;9.978;2023-02-15T09:36:14;9.80;99.90
15241;DHT22;7723;52.170;9.978;2023-02-15T09:38:44;9.80;99.90
15241;DHT22;7723;52.170;9.978;2023-02-15T09:41:23;9.50;99.90
15241;DHT22;7723;52.170;9.978;2023-02-15T09:44:02;9.40;99.90
15241;DHT22;7723;52.170;9.978;2023-02-15T09:46:50;8.80;99.90
15241;DHT22;7723;52.170;9.978;2023-02-15T09:49:28;8.70;99.90
15241;DHT22;7723;52.170;9.978;2023-02-15T09:52:22;8.90;99.90
15241;DHT22;7723;52.170;9.978;2023-02-15T09:55:08;8.80;99.90
15241;DHT22;7723;52.170;9.978;2023-02-15T09:57:48;9.20;99.90
15241;DHT22;7723;52.170;9.978;2023-02-15T10:00:24;9.70;99.90
15241;DHT22;7723;52.170;9.978;2023-02-15T10:03:09;9.70;99.90
15241;DHT22;7723;52.170;9.978;2023-02-15T10:05:47;9.70;70.30
15241;DHT22;7723;52.170;9.978;2023-02-15T10:11:15;9.90;43.80
15241;DHT22;7723;52.170;9.978;2023-02-15T10:14:15;9.60;25.20
15241;DHT22;7723;52.170;9.978;2023-02-15T10:16:53;9.50;10.80
15241;DHT22;7723;52.170;9.978;2023-02-15T10:19:28;9.40;15.40
15241;DHT22;7723;52.170;9.978;2023-02-15T10:22:04;9.20;10.10
15241;DHT22;7723;52.170;9.978;2023-02-15T10:24:57;9.10;5.20
15241;DHT22;7723;52.170;9.978;2023-02-15T10:27:33;9.10;7.40
15241;DHT22;7723;52.170;9.978;2023-02-15T10:30:09;8.60;1.30
15241;DHT22;7723;52.170;9.978;2023-02-15T10:32:44;8.20;1.00
15241;DHT22;7723;52.170;9.978;2023-02-15T10:35:22;8.30;2.40
15241;DHT22;7723;52.170;9.978;2023-02-15T10:38:00;8.10;1.00
15241;DHT22;7723;52.170;9.978;2023-02-15T10:40:33;7.90;1.00
15241;DHT22;7723;52.170;9.978;2023-02-15T10:43:19;7.80;5.50
15241;DHT22;7723;52.170;9.978;2023-02-15T10:45:56;7.70;8.30
15241;DHT22;7723;52.170;9.978;2023-02-15T10:48:52;7.50;14.80
15241;DHT22;7723;52.170;9.978;2023-02-15T10:51:30;7.40;16.50
15241;DHT22;7723;52.170;9.978;2023-02-15T10:54:09;7.20;17.10
15241;DHT22;7723;52.170;9.978;2023-02-15T10:56:44;7.20;18.90
15241;DHT22;7723;52.170;9.978;2023-02-15T10:59:36;7.30;21.90
15241;DHT22;7723;52.170;9.978;2023-02-15T11:02:11;7.50;28.70
15241;DHT22;7723;52.170;9.978;2023-02-15T11:04:51;7.60;11.60
15241;DHT22;7723;52.170;9.978;2023-02-15T11:07:23;7.70;13.10
15241;DHT22;7723;52.170;9.978;2023-02-15T11:09:56;7.80;15.80
15241;DHT22;7723;52.170;9.978;2023-02-15T11:12:27;8.00;12.70
15241;DHT22;7723;52.170;9.978;2023-02-15T11:15:00;7.90;8.70
15241;DHT22;7723;52.170;9.978;2023-02-15T11:17:35;8.00;17.10
15241;DHT22;7723;52.170;9.978;2023-02-15T11:20:14;8.00;15.50
15241;DHT22;7723;52.170;9.978;2023-02-15T11:22:43;7.90;10.60
15241;DHT22;7723;52.170;9.978;2023-02-15T11:25:18;7.80;10.00
15241;DHT22;7723;52.170;9.978;2023-02-15T11:27:46;7.80;9.20
15241;DHT22;7723;52.170;9.978;2023-02-15T11:30:21;8.00;7.00
15241;DHT22;7723;52.170;9.978;2023-02-15T11:32:51;7.70;3.20
15241;DHT22;7723;52.170;9.978;2023-02-15T11:35:24;7.80;11.60
15241;DHT22;7723;52.170;9.978;2023-02-15T11:37:57;7.90;5.00
15241;DHT22;7723;52.170;9.978;2023-02-15T11:40:28;7.90;1.00
15241;DHT22;7723;52.170;9.978;2023-02-15T11:42:58;7.90;1.00
15241;DHT22;7723;52.170;9.978;2023-02-15T11:45:30;8.00;1.80
15241;DHT22;7723;52.170;9.978;2023-02-15T11:47:58;7.90;1.00
15241;DHT22;7723;52.170;9.978;2023-02-15T11:50:28;7.90;1.00
15241;DHT22;7723;52.170;9.978;2023-02-15T11:53:00;7.90;1.00
15241;DHT22;7723;52.170;9.978;2023-02-15T11:55:28;8.00;1.00
15241;DHT22;7723;52.170;9.978;2023-02-15T11:58:01;7.90;1.00
15241;DHT22;7723;52.170;9.978;2023-02-15T12:00:36;8.10;1.00
15241;DHT22;7723;52.170;9.978;2023-02-15T12:03:11;8.00;1.00
15241;DHT22;7723;52.170;9.978;2023-02-15T12:05:40;8.10;1.00
15241;DHT22;7723;52.170;9.978;2023-02-15T12:08:15;8.20;4.00
15241;DHT22;7723;52.170;9.978;2023-02-15T12:10:52;8.30;3.00
15241;DHT22;7723;52.170;9.978;2023-02-15T12:13:22;8.30;1.00
15241;DHT22;7723;52.170;9.978;2023-02-15T12:15:53;8.30;1.00
15241;DHT22;7723;52.170;9.978;2023-02-15T12:18:33;8.30;1.00
15241;DHT22;7723;52.170;9.978;2023-02-15T12:21:04;8.30;1.00
15241;DHT22;7723;52.170;9.978;2023-02-15T12:23:33;8.30;1.00
15241;DHT22;7723;52.170;9.978;2023-02-15T12:26:00;8.40;1.00
15241;DHT22;7723;52.170;9.978;2023-02-15T12:28:32;8.50;1.00
15241;DHT22;7723;52.170;9.978;2023-02-15T12:31:02;8.50;1.00
15241;DHT22;7723;52.170;9.978;2023-02-15T12:33:32;8.60;1.00
15241;DHT22;7723;52.170;9.978;2023-02-15T12:36:06;8.60;1.00
15241;DHT22;7723;52.170;9.978;2023-02-15T12:38:37;8.80;1.00
15241;DHT22;7723;52.170;9.978;2023-02-15T12:41:19;8.90;1.00
15241;DHT22;7723;52.170;9.978;2023-02-15T12:44:05;8.80;1.00
15241;DHT22;7723;52.170;9.978;2023-02-15T12:46:33;8.80;1.00
15241;DHT22;7723;52.170;9.978;2023-02-15T12:49:14;8.70;1.00
15241;DHT22;7723;52.170;9.978;2023-02-15T12:51:44;8.80;1.00
15241;DHT22;7723;52.170;9.978;2023-02-15T12:54:30;8.80;1.00
15241;DHT22;7723;52.170;9.978;2023-02-15T12:56:57;8.80;1.00
15241;DHT22;7723;52.170;9.978;2023-02-15T12:59:25;8.90;1.00
15241;DHT22;7723;52.170;9.978;2023-02-15T13:01:53;8.90;1.00
15241;DHT22;7723;52.170;9.978;2023-02-15T13:04:24;8.80;1.00
15241;DHT22;7723;52.170;9.978;2023-02-15T13:06:53;8.80;1.00
15241;DHT22;7723;52.170;9.978;2023-02-15T13:09:26;8.80;1.00
15241;DHT22;7723;52.170;9.978;2023-02-15T13:12:10;8.80;1.00
15241;DHT22;7723;52.170;9.978;2023-02-15T13:14:43;8.70;1.00
15241;DHT22;7723;52.170;9.978;2023-02-15T13:17:13;8.80;1.00
15241;DHT22;7723;52.170;9.978;2023-02-15T13:19:45;8.80;1.00
15241;DHT22;7723;52.170;9.978;2023-02-15T13:22:14;8.60;1.00
15241;DHT22;7723;52.170;9.978;2023-02-15T13:24:45;8.80;1.00
15241;DHT22;7723;52.170;9.978;2023-02-15T13:27:16;8.80;1.00
15241;DHT22;7723;52.170;9.978;2023-02-15T13:29:45;8.90;1.00
15241;DHT22;7723;52.170;9.978;2023-02-15T13:32:25;8.90;1.00
15241;DHT22;7723;52.170;9.978;2023-02-15T13:34:56;8.90;1.00
15241;DHT22;7723;52.170;9.978;2023-02-15T13:37:34;8.90;1.00
15241;DHT22;7723;52.170;9.978;2023-02-15T13:40:10;9.00;1.00
15241;DHT22;7723;52.170;9.978;2023-02-15T13:42:42;9.00;1.00
15241;DHT22;7723;52.170;9.978;2023-02-15T13:45:21;9.10;1.00
15241;DHT22;7723;52.170;9.978;2023-02-15T13:48:01;9.10;1.00
15241;DHT22;7723;52.170;9.978;2023-02-15T13:50:53;9.10;1.00
15241;DHT22;7723;52.170;9.978;2023-02-15T13:53:38;9.00;1.00
15241;DHT22;7723;52.170;9.978;2023-02-15T13:56:14;9.00;1.00
15241;DHT22;7723;52.170;9.978;2023-02-15T13:59:04;9.10;1.00
15241;DHT22;7723;52.170;9.978;2023-02-15T14:01:42;9.10;1.00
15241;DHT22;7723;52.170;9.978;2023-02-15T14:04:25;9.10;1.00
15241;DHT22;7723;52.170;9.978;2023-02-15T14:07:10;9.00;1.00
15241;DHT22;7723;52.170;9.978;2023-02-15T14:09:50;9.10;1.00
15241;DHT22;7723;52.170;9.978;2023-02-15T14:12:37;9.00;1.00
15241;DHT22;7723;52.170;9.978;2023-02-15T14:15:32;9.10;1.00
15241;DHT22;7723;52.170;9.978;2023-02-15T14:18:10;9.10;1.00
15241;DHT22;7723;52.170;9.978;2023-02-15T14:20:51;9.10;1.00
15241;DHT22;7723;52.170;9.978;2023-02-15T14:23:36;9.10;1.00
15241;DHT22;7723;52.170;9.978;2023-02-15T14:26:09;9.10;1.00
15241;DHT22;7723;52.170;9.978;2023-02-15T14:28:43;9.10;1.00
15241;DHT22;7723;52.170;9.978;2023-02-15T14:31:14;9.10;1.00
15241;DHT22;7723;52.170;9.978;2023-02-15T14:33:49;9.00;1.00
15241;DHT22;7723;52.170;9.978;2023-02-15T14:36:21;9.00;1.00
15241;DHT22;7723;52.170;9.978;2023-02-15T14:38:57;8.90;1.00
15241;DHT22;7723;52.170;9.978;2023-02-15T14:41:30;8.90;1.00
15241;DHT22;7723;52.170;9.978;2023-02-15T14:44:06;8.90;1.00
15241;DHT22;7723;52.170;9.978;2023-02-15T14:46:38;8.90;1.00
15241;DHT22;7723;52.170;9.978;2023-02-15T14:49:12;8.90;1.00
15241;DHT22;7723;52.170;9.978;2023-02-15T14:51:59;8.90;1.00
15241;DHT22;7723;52.170;9.978;2023-02-15T14:54:55;8.90;1.00
15241;DHT22;7723;52.170;9.978;2023-02-15T14:57:25;8.90;1.00
15241;DHT22;7723;52.170;9.978;2023-02-15T14:59:54;8.90;1.00
15241;DHT22;7723;52.170;9.978;2023-02-15T15:02:25;8.90;1.60
15241;DHT22;7723;52.170;9.978;2023-02-15T15:05:07;8.80;2.20
15241;DHT22;7723;52.170;9.978;2023-02-15T15:07:41;8.80;5.00
15241;DHT22;7723;52.170;9.978;2023-02-15T15:10:38;8.80;8.60
15241;DHT22;7723;52.170;9.978;2023-02-15T15:13:37;8.80;7.70
15241;DHT22;7723;52.170;9.978;2023-02-15T15:16:24;8.80;8.90
15241;DHT22;7723;52.170;9.978;2023-02-15T15:18:52;8.70;11.10
15241;DHT22;7723;52.170;9.978;2023-02-15T15:21:52;8.70;14.80
15241;DHT22;7723;52.170;9.978;2023-02-15T15:24:48;8.60;14.80
15241;DHT22;7723;52.170;9.978;2023-02-15T15:27:38;8.60;16.40
15241;DHT22;7723;52.170;9.978;2023-02-15T15:33:16;8.50;19.20
15241;DHT22;7723;52.170;9.978;2023-02-15T15:36:00;8.50;19.40
15241;DHT22;7723;52.170;9.978;2023-02-15T15:38:41;8.50;21.10
15241;DHT22;7723;52.170;9.978;2023-02-15T15:41:19;8.40;26.10
15241;DHT22;7723;52.170;9.978;2023-02-15T15:44:11;8.30;30.70
15241;DHT22;7723;52.170;9.978;2023-02-15T15:47:08;8.30;33.80
15241;DHT22;7723;52.170;9.978;2023-02-15T15:49:41;8.20;38.60
15241;DHT22;7723;52.170;9.978;2023-02-15T15:52:13;8.10;45.80
15241;DHT22;7723;52.170;9.978;2023-02-15T15:54:41;8.00;50.60
15241;DHT22;7723;52.170;9.978;2023-02-15T15:57:21;8.00;52.30
15241;DHT22;7723;52.170;9.978;2023-02-15T15:59:51;7.90;57.30
15241;DHT22;7723;52.170;9.978;2023-02-15T16:02:19;7.90;57.90
15241;DHT22;7723;52.170;9.978;2023-02-15T16:04:49;7.80;61.30
15241;DHT22;7723;52.170;9.978;2023-02-15T16:07:26;7.70;65.10
15241;DHT22;7723;52.170;9.978;2023-02-15T16:09:55;7.70;68.40
15241;DHT22;7723;52.170;9.978;2023-02-15T16:12:25;7.60;74.60
15241;DHT22;7723;52.170;9.978;2023-02-15T16:14:53;7.40;86.50
15241;DHT22;7723;52.170;9.978;2023-02-15T16:17:23;7.40;90.50
15241;DHT22;7723;52.170;9.978;2023-02-15T16:19:51;7.30;92.40
15241;DHT22;7723;52.170;9.978;2023-02-15T16:22:21;7.10;96.50
15241;DHT22;7723;52.170;9.978;2023-02-15T16:25:07;7.10;97.70
15241;DHT22;7723;52.170;9.978;2023-02-15T16:27:43;6.90;99.90
15241;DHT22;7723;52.170;9.978;2023-02-15T16:30:18;6.60;99.90
15241;DHT22;7723;52.170;9.978;2023-02-15T16:32:45;6.60;99.90
15241;DHT22;7723;52.170;9.978;2023-02-15T16:35:15;6.70;99.90
15241;DHT22;7723;52.170;9.978;2023-02-15T16:37:43;6.70;99.90
15241;DHT22;7723;52.170;9.978;2023-02-15T16:40:27;6.60;99.90
15241;DHT22;7723;52.170;9.978;2023-02-15T16:43:01;6.50;99.90
15241;DHT22;7723;52.170;9.978;2023-02-15T16:45:31;6.40;99.90
15241;DHT22;7723;52.170;9.978;2023-02-15T16:48:01;6.20;99.90